Terminal Aerodrome Forecast
Issued by NWS

Home | Current Version | Previous Version | Text Only | Print | Product List | Glossary Off
Versions: 1 2 3 4 5 6 7 8 9 10 11 12 13 14 15 16 17 18 19 20

000
FTUS43 KTOP 232300
TAFFOE
TAF
KFOE 232339Z 2400/2424 13007KT 4SM RA BR BKN015
      TEMPO 2400/2402 2SM TSRA OVC030CB
     FM240700 11009KT P6SM -SHRA BKN008
     FM241500 16009KT P6SM BKN010
     FM242000 19011KT P6SM BKN035
      TEMPO 2421/2424 4SM -TSRA OVC015CB=

USA.gov is the U.S. government's official web portal to all federal, state and local government web resources and services.